Time;durP1;ratioP1;P1;durP2;ratioP2;P2;SDS_P1;SDS_P2;PMS_P1;PMS_P2;Temp;Humidity;BMP_temperature;BMP_pressure;BME280_temperature;BME280_humidity;BME280_pressure;Samples;Min_cycle;Max_cycle;Signal;HPM_P1;HPM_P2
2023/05/29 00:00:13;;;;;;;13.18;3.17;;;;;;;15.65;58.80;102585.88;5090913;28;20115;-46
2023/05/29 00:02:39;;;;;;;15.15;3.10;;;;;;;15.33;59.41;102586.94;5090786;28;20036;-46
2023/05/29 00:05:05;;;;;;;15.15;3.30;;;;;;;15.47;58.86;102580.22;5089379;28;20594;-45
2023/05/29 00:07:32;;;;;;;16.15;3.33;;;;;;;15.37;59.48;102587.00;5090605;28;20119;-45
2023/05/29 00:09:58;;;;;;;13.10;3.05;;;;;;;15.18;60.18;102581.38;5090200;28;20119;-47
2023/05/29 00:12:23;;;;;;;16.40;3.13;;;;;;;15.22;59.62;102580.56;5090466;28;20036;-46
2023/05/29 00:14:49;;;;;;;16.08;3.08;;;;;;;15.21;59.36;102577.03;5090373;28;20028;-45
2023/05/29 00:17:15;;;;;;;12.93;2.80;;;;;;;15.10;59.76;102570.69;5089782;28;20093;-45
2023/05/29 00:19:41;;;;;;;14.93;2.72;;;;;;;14.98;60.32;102573.03;5072326;28;20059;-46
2023/05/29 00:22:06;;;;;;;16.38;2.88;;;;;;;15.11;59.96;102582.06;5089731;28;20036;-51
2023/05/29 00:24:32;;;;;;;19.55;3.15;;;;;;;15.12;59.63;102581.22;5090166;28;20032;-45
2023/05/29 00:26:57;;;;;;;12.50;2.72;;;;;;;15.48;58.82;102574.13;5089940;28;20032;-49
2023/05/29 00:29:22;;;;;;;16.83;3.28;;;;;;;15.28;58.91;102581.59;5090237;28;20105;-50
2023/05/29 00:31:48;;;;;;;19.95;3.15;;;;;;;15.17;59.25;102577.84;5090565;28;20032;-45
2023/05/29 00:34:13;;;;;;;11.73;2.90;;;;;;;15.41;58.32;102586.25;5089198;28;20071;-46
2023/05/29 00:36:38;;;;;;;15.45;2.83;;;;;;;15.41;58.25;102582.72;5090439;28;20433;-44
2023/05/29 00:39:04;;;;;;;13.77;2.63;;;;;;;15.19;58.85;102591.88;5089729;28;20134;-45
2023/05/29 00:41:29;;;;;;;12.55;2.92;;;;;;;15.36;58.18;102595.78;5090655;28;20032;-52
2023/05/29 00:43:55;;;;;;;12.77;3.65;;;;;;;15.14;59.08;102605.78;5089375;28;20047;-46
2023/05/29 00:46:20;;;;;;;17.77;2.67;;;;;;;15.10;59.06;102604.84;5089246;28;20039;-49
2023/05/29 00:48:46;;;;;;;14.18;2.75;;;;;;;14.96;59.48;102604.50;5089941;28;20031;-48
2023/05/29 00:51:13;;;;;;;16.20;2.80;;;;;;;14.70;60.04;102607.41;5089297;28;20070;-46
2023/05/29 00:53:42;;;;;;;10.98;3.00;;;;;;;14.91;59.50;102610.50;5089311;28;20040;-49
2023/05/29 00:56:08;;;;;;;17.58;2.97;;;;;;;14.65;60.21;102607.25;5089048;28;20043;-45
2023/05/29 00:58:34;;;;;;;14.75;2.85;;;;;;;14.92;59.39;102614.91;5089691;28;20036;-44
2023/05/29 01:01:00;;;;;;;13.82;2.80;;;;;;;14.84;59.75;102609.47;5089102;28;20032;-44
2023/05/29 01:03:28;;;;;;;15.95;2.85;;;;;;;14.70;60.07;102608.25;5089220;28;20072;-45
2023/05/29 01:05:53;;;;;;;17.38;2.85;;;;;;;14.56;60.10;102613.19;5089506;28;20032;-45
2023/05/29 01:08:19;;;;;;;15.13;2.78;;;;;;;14.80;59.50;102614.63;5089120;28;20516;-47
2023/05/29 01:10:44;;;;;;;12.80;2.50;;;;;;;14.40;60.45;102618.88;5089580;28;20044;-44
2023/05/29 01:13:19;;;;;;;15.75;3.00;;;;;;;14.69;59.58;102621.38;5088277;28;20039;-45
2023/05/29 01:15:59;;;;;;;;;;;;;;;14.67;59.55;102620.44;5089898;28;20339;-45
2023/05/29 01:18:43;;;;;;;18.77;2.85;;;;;;;14.72;59.16;102624.94;5068709;28;19916;-44
2023/05/29 01:21:22;;;;;;;15.02;2.65;;;;;;;14.65;59.64;102625.63;5069224;28;20032;-44
2023/05/29 01:24:09;;;;;;;12.50;2.83;;;;;;;14.68;59.25;102628.34;5068656;28;20043;-45
2023/05/29 01:27:20;;;;;;;14.98;2.63;;;;;;;14.69;58.92;102622.25;5069359;28;20040;-48
2023/05/29 01:29:46;;;;;;;12.55;2.42;;;;;;;14.64;58.88;102628.25;5085542;28;20032;-46
2023/05/29 01:32:12;;;;;;;14.20;2.78;;;;;;;14.65;58.67;102619.50;5089010;28;20086;-45
2023/05/29 01:34:37;;;;;;;13.98;2.97;;;;;;;14.68;58.44;102622.22;5071344;28;20502;-44
2023/05/29 01:37:03;;;;;;;17.15;3.00;;;;;;;14.63;58.31;102624.72;5089096;28;20521;-46
2023/05/29 01:39:29;;;;;;;10.50;2.38;;;;;;;14.76;57.93;102631.16;5089345;28;20046;-45
2023/05/29 01:41:55;;;;;;;14.57;2.53;;;;;;;14.66;58.14;102631.78;5090006;28;20067;-48
2023/05/29 01:44:21;;;;;;;14.13;2.80;;;;;;;14.76;57.66;102634.66;5089202;28;20043;-51
2023/05/29 01:46:48;;;;;;;12.75;2.90;;;;;;;14.42;58.42;102629.44;5092230;28;20040;-52
2023/05/29 01:49:14;;;;;;;12.57;2.58;;;;;;;14.62;57.88;102633.44;5088672;28;20044;-49
2023/05/29 01:51:40;;;;;;;14.30;2.65;;;;;;;14.26;58.83;102630.75;5089870;28;20039;-47
2023/05/29 01:54:06;;;;;;;13.20;2.55;;;;;;;14.63;57.66;102642.22;5088588;28;20039;-45
2023/05/29 01:56:32;;;;;;;14.13;2.47;;;;;;;14.28;58.61;102636.91;5089527;28;20494;-45
2023/05/29 01:59:00;;;;;;;11.15;2.70;;;;;;;14.48;57.86;102642.72;5088566;28;20051;-46
2023/05/29 02:01:26;;;;;;;11.60;2.65;;;;;;;14.67;57.23;102644.06;5089273;28;20402;-45
2023/05/29 02:03:51;;;;;;;13.45;2.88;;;;;;;14.49;57.68;102645.38;5089003;28;20043;-49
2023/05/29 02:06:16;;;;;;;16.30;2.42;;;;;;;14.56;57.58;102646.44;5088688;28;20116;-47
2023/05/29 02:08:42;;;;;;;11.57;2.30;;;;;;;14.39;58.19;102639.88;5088925;28;20491;-46
2023/05/29 02:11:07;;;;;;;16.17;2.65;;;;;;;14.41;58.05;102651.25;5088943;28;20493;-51
2023/05/29 02:13:33;;;;;;;16.58;2.60;;;;;;;14.27;58.44;102653.53;5088691;28;20066;-48
2023/05/29 02:15:59;;;;;;;15.20;2.70;;;;;;;14.47;57.69;102649.69;5088677;28;20166;-46
2023/05/29 02:18:25;;;;;;;14.02;2.88;;;;;;;14.27;58.33;102644.75;5089464;28;20037;-46
2023/05/29 02:20:50;;;;;;;16.23;2.90;;;;;;;14.10;58.60;102645.19;5090245;28;20061;-45
2023/05/29 02:23:16;;;;;;;12.98;2.42;;;;;;;14.49;57.86;102649.75;5089328;28;20036;-49
2023/05/29 02:25:42;;;;;;;15.82;3.05;;;;;;;14.49;57.53;102637.50;5090048;28;20078;-46
2023/05/29 02:28:07;;;;;;;16.08;2.42;;;;;;;14.58;57.60;102642.06;5091178;28;20028;-44
2023/05/29 02:30:33;;;;;;;16.75;2.70;;;;;;;14.27;58.43;102643.03;5093777;28;20036;-46
2023/05/29 02:32:58;;;;;;;14.02;2.60;;;;;;;14.55;57.51;102639.41;5093184;28;20032;-49
2023/05/29 02:35:24;;;;;;;13.95;2.47;;;;;;;14.42;57.71;102637.31;5093908;28;20043;-45
2023/05/29 02:37:50;;;;;;;11.63;2.50;;;;;;;14.39;58.17;102640.75;5093281;28;20126;-45
2023/05/29 02:40:16;;;;;;;18.10;2.70;;;;;;;14.29;58.20;102643.03;5093037;28;20069;-45
2023/05/29 02:42:41;;;;;;;16.92;2.78;;;;;;;14.37;57.91;102638.91;5093971;28;20176;-46
2023/05/29 02:45:07;;;;;;;13.63;2.42;;;;;;;14.84;56.56;102638.38;5093430;28;20036;-45
2023/05/29 02:47:32;;;;;;;15.90;2.83;;;;;;;14.43;57.52;102639.97;5093915;28;20047;-45
2023/05/29 02:49:58;;;;;;;15.13;2.58;;;;;;;14.49;57.13;102644.50;5092457;28;20506;-48
2023/05/29 02:52:23;;;;;;;13.70;2.42;;;;;;;14.35;57.37;102648.44;5091971;28;20123;-45
2023/05/29 02:54:49;;;;;;;10.25;2.20;;;;;;;14.77;56.49;102646.94;5092733;28;20059;-45
2023/05/29 02:57:14;;;;;;;15.75;3.60;;;;;;;14.74;56.24;102636.38;5073058;28;20125;-47
2023/05/29 02:59:39;;;;;;;13.43;2.47;;;;;;;14.47;57.03;102641.81;5092325;28;20074;-50
2023/05/29 03:02:05;;;;;;;17.60;2.53;;;;;;;14.63;56.49;102635.25;5091345;28;20036;-46
2023/05/29 03:04:30;;;;;;;13.48;2.45;;;;;;;14.53;56.53;102643.72;5091758;28;20036;-45
2023/05/29 03:06:56;;;;;;;15.57;2.53;;;;;;;14.68;56.35;102643.22;5091787;28;20039;-46
2023/05/29 03:09:21;;;;;;;18.20;2.35;;;;;;;14.75;55.98;102655.66;5091001;28;20039;-46
2023/05/29 03:11:49;;;;;;;11.57;2.25;;;;;;;14.88;55.39;102649.84;5091483;28;20527;-46
2023/05/29 03:14:15;;;;;;;15.40;2.35;;;;;;;14.57;56.13;102654.34;5090379;28;20062;-47
2023/05/29 03:16:40;;;;;;;13.20;2.50;;;;;;;14.59;56.45;102651.72;5091574;28;20501;-44
2023/05/29 03:19:07;;;;;;;15.82;2.60;;;;;;;14.70;55.91;102652.03;5091402;28;20032;-45
2023/05/29 03:21:33;;;;;;;13.88;2.70;;;;;;;14.58;56.26;102644.72;5091509;28;20028;-45
2023/05/29 03:23:58;;;;;;;21.08;3.08;;;;;;;14.44;56.76;102635.63;5090452;28;20470;-48
2023/05/29 03:26:23;;;;;;;14.40;2.70;;;;;;;14.52;56.33;102639.31;5073148;28;20051;-45
2023/05/29 03:28:49;;;;;;;9.68;2.50;;;;;;;14.32;57.10;102638.78;5091141;28;20040;-46
2023/05/29 03:31:14;;;;;;;13.68;2.45;;;;;;;14.35;57.30;102640.56;5090881;28;20040;-44
2023/05/29 03:33:39;;;;;;;14.45;2.33;;;;;;;14.23;57.46;102631.53;5090712;28;20028;-48
2023/05/29 03:36:05;;;;;;;17.98;2.47;;;;;;;14.47;56.60;102633.94;5091076;28;20032;-44
2023/05/29 03:38:30;;;;;;;12.23;2.40;;;;;;;14.35;56.91;102635.31;5090840;28;20047;-43
2023/05/29 03:40:56;;;;;;;15.02;2.45;;;;;;;14.46;56.55;102644.41;5091134;28;20052;-50
2023/05/29 03:43:21;;;;;;;16.75;2.83;;;;;;;14.37;56.48;102633.66;5072283;28;20115;-46
2023/05/29 03:45:46;;;;;;;12.68;2.10;;;;;;;14.57;56.27;102642.97;5091071;28;20047;-45
2023/05/29 03:48:11;;;;;;;13.98;2.45;;;;;;;14.66;55.89;102644.91;5090544;28;20032;-48
2023/05/29 03:50:37;;;;;;;16.35;2.60;;;;;;;14.32;56.76;102645.75;5090986;28;20089;-47
2023/05/29 03:53:02;;;;;;;11.90;2.10;;;;;;;14.38;56.78;102652.09;5090006;28;20044;-51
2023/05/29 03:55:28;;;;;;;13.32;2.33;;;;;;;14.65;55.99;102654.50;5091201;28;20081;-48
2023/05/29 03:57:53;;;;;;;14.75;2.45;;;;;;;14.79;55.64;102661.00;5090601;28;20044;-47
2023/05/29 04:00:18;;;;;;;15.20;2.60;;;;;;;14.52;55.94;102657.66;5090267;28;20059;-48
2023/05/29 04:02:44;;;;;;;11.68;2.47;;;;;;;14.76;55.63;102662.69;5090477;28;20122;-46
2023/05/29 04:05:10;;;;;;;17.52;2.67;;;;;;;14.41;56.78;102665.28;5090222;28;20115;-49
2023/05/29 04:07:39;;;;;;;18.05;2.35;;;;;;;14.72;55.97;102655.56;5091238;28;20555;-50
2023/05/29 04:10:06;;;;;;;12.68;2.33;;;;;;;15.15;54.92;102665.34;5091256;28;20067;-47
2023/05/29 04:12:32;;;;;;;12.57;2.17;;;;;;;14.86;55.63;102659.41;5091216;28;20040;-50
2023/05/29 04:14:57;;;;;;;9.93;2.03;;;;;;;14.71;56.13;102659.03;5090727;28;20043;-48
2023/05/29 04:17:23;;;;;;;12.50;2.92;;;;;;;15.06;55.00;102666.03;5069750;28;20124;-49
2023/05/29 04:19:48;;;;;;;11.77;2.20;;;;;;;14.84;55.72;102667.25;5070170;28;20542;-46
2023/05/29 04:22:14;;;;;;;14.15;2.40;;;;;;;14.75;55.83;102669.66;5069084;28;20045;-51
2023/05/29 04:24:41;;;;;;;13.23;2.35;;;;;;;14.89;55.58;102664.72;5069920;28;20047;-46
2023/05/29 04:27:08;;;;;;;11.88;2.60;;;;;;;15.28;54.64;102677.91;5069370;28;20037;-45
2023/05/29 04:29:34;;;;;;;12.20;2.25;;;;;;;14.74;56.01;102678.38;5070191;28;20121;-47
2023/05/29 04:32:03;;;;;;;10.98;2.28;;;;;;;14.74;55.90;102673.13;5069640;28;20442;-44
2023/05/29 04:34:28;;;;;;;11.55;2.30;;;;;;;14.89;55.38;102676.13;5069656;28;20137;-44
2023/05/29 04:36:53;;;;;;;13.07;2.50;;;;;;;15.10;55.04;102673.13;5070066;28;20551;-45
2023/05/29 04:39:22;;;;;;;13.30;2.65;;;;;;;15.18;54.70;102691.72;5069222;28;20040;-48
2023/05/29 04:41:47;;;;;;;12.82;2.65;;;;;;;15.07;54.97;102685.28;5069930;28;20104;-44
2023/05/29 04:44:13;;;;;;;15.35;2.95;;;;;;;15.44;54.24;102685.28;5068498;28;20503;-46
2023/05/29 04:46:38;;;;;;;16.00;2.92;;;;;;;15.16;54.57;102691.66;5070074;28;20037;-45
2023/05/29 04:49:04;;;;;;;19.13;2.67;;;;;;;15.12;54.79;102700.34;5069068;28;20032;-45
2023/05/29 04:51:30;;;;;;;17.90;3.50;;;;;;;15.43;54.36;102694.00;5069436;28;20024;-45
2023/05/29 04:53:56;;;;;;;23.05;2.95;;;;;;;15.18;54.61;102692.59;5069088;28;20518;-47
2023/05/29 04:56:22;;;;;;;12.75;2.30;;;;;;;15.36;54.47;102695.66;5069156;28;20025;-52
2023/05/29 04:58:48;;;;;;;16.02;2.90;;;;;;;15.56;54.09;102698.72;5069279;28;20043;-52
2023/05/29 05:01:14;;;;;;;13.10;2.58;;;;;;;15.81;53.45;102697.50;5068869;28;20041;-47
2023/05/29 05:03:42;;;;;;;12.85;2.83;;;;;;;15.94;53.30;102693.38;5068878;28;20123;-46
2023/05/29 05:06:07;;;;;;;12.90;2.50;;;;;;;16.10;52.93;102704.25;5068971;28;20116;-47
2023/05/29 05:08:33;;;;;;;11.75;2.78;;;;;;;15.93;53.11;102696.88;5069268;28;20119;-43
2023/05/29 05:11:02;;;;;;;9.55;2.50;;;;;;;16.08;52.60;102702.47;5051065;28;20032;-46
2023/05/29 05:13:27;;;;;;;13.05;2.70;;;;;;;16.26;52.00;102702.81;5069027;28;20059;-49
2023/05/29 05:15:53;;;;;;;11.32;2.80;;;;;;;16.14;52.33;102702.56;5069334;28;20052;-45
2023/05/29 05:18:19;;;;;;;17.17;2.65;;;;;;;16.05;52.74;102698.00;5068539;28;20036;-49
2023/05/29 05:20:45;;;;;;;13.65;2.50;;;;;;;16.40;51.87;102708.34;5069571;28;20102;-50
2023/05/29 05:23:11;;;;;;;15.07;2.63;;;;;;;16.45;51.55;102710.19;5069170;28;20041;-49
2023/05/29 05:25:36;;;;;;;14.98;3.00;;;;;;;16.26;51.80;102708.06;5070631;28;20044;-45
2023/05/29 05:28:05;;;;;;;10.45;2.50;;;;;;;16.43;51.65;102696.13;5069870;28;20033;-46
2023/05/29 05:30:31;;;;;;;14.40;2.58;;;;;;;16.24;51.69;102705.41;5069537;28;20127;-44
2023/05/29 05:32:57;;;;;;;13.98;2.55;;;;;;;16.68;51.44;102715.91;5050760;28;20036;-46
2023/05/29 05:35:22;;;;;;;13.25;2.83;;;;;;;16.68;50.94;102709.75;5089099;28;20083;-46
2023/05/29 05:37:48;;;;;;;14.05;2.75;;;;;;;16.95;50.19;102715.50;5088839;28;20040;-48
2023/05/29 05:40:13;;;;;;;12.88;2.53;;;;;;;16.66;49.84;102711.47;5088852;28;20036;-49
2023/05/29 05:42:38;;;;;;;14.85;3.15;;;;;;;16.72;50.15;102709.81;5089050;28;20036;-45
2023/05/29 05:45:06;;;;;;;11.63;2.70;;;;;;;17.03;49.70;102720.00;5088653;28;20122;-48
2023/05/29 05:47:32;;;;;;;11.65;2.65;;;;;;;16.79;50.14;102718.72;5089529;28;20033;-46
2023/05/29 05:49:57;;;;;;;13.88;2.92;;;;;;;16.71;49.92;102721.22;5089432;28;20048;-48
2023/05/29 05:52:23;;;;;;;14.80;2.70;;;;;;;16.91;50.44;102722.44;5088771;28;20036;-50
2023/05/29 05:54:48;;;;;;;14.48;2.88;;;;;;;16.96;49.61;102718.13;5089136;28;20119;-48
2023/05/29 05:57:14;;;;;;;19.50;3.03;;;;;;;16.65;50.35;102721.09;5088738;28;20123;-47
2023/05/29 05:59:39;;;;;;;14.38;2.95;;;;;;;16.86;49.61;102720.59;5088954;28;20417;-48
2023/05/29 06:02:04;;;;;;;11.15;2.90;;;;;;;16.56;50.52;102721.81;5088610;28;20494;-48
2023/05/29 06:04:30;;;;;;;13.95;3.00;;;;;;;16.49;50.30;102727.81;5093168;28;20042;-47
2023/05/29 06:06:55;;;;;;;14.18;3.10;;;;;;;16.92;49.28;102728.59;5093328;28;20033;-46
2023/05/29 06:09:21;;;;;;;16.95;3.10;;;;;;;17.00;48.59;102732.25;5092674;28;20047;-51
2023/05/29 06:11:47;;;;;;;17.30;2.95;;;;;;;16.84;48.89;102720.56;5092687;28;20169;-45
2023/05/29 06:14:13;;;;;;;12.68;2.70;;;;;;;17.47;47.82;102732.09;5091809;28;20043;-49
2023/05/29 06:16:39;;;;;;;12.07;2.72;;;;;;;18.64;45.36;102722.16;5093054;28;20521;-49
2023/05/29 06:19:04;;;;;;;13.13;2.80;;;;;;;18.63;44.05;102727.44;5092644;28;20040;-45
2023/05/29 06:21:30;;;;;;;12.55;2.88;;;;;;;18.94;43.36;102728.59;5092990;28;20130;-47
2023/05/29 06:23:55;;;;;;;11.45;2.78;;;;;;;19.54;42.67;102737.88;5092981;28;20032;-48
2023/05/29 06:26:21;;;;;;;15.85;2.88;;;;;;;19.09;43.25;102731.34;5092719;28;20047;-46
2023/05/29 06:28:46;;;;;;;9.90;2.58;;;;;;;18.91;42.84;102723.25;5093494;28;20094;-47
2023/05/29 06:31:12;;;;;;;13.70;2.80;;;;;;;18.92;42.76;102722.41;5093316;28;20115;-50
2023/05/29 06:33:37;;;;;;;10.55;2.75;;;;;;;18.23;43.56;102724.34;5092382;28;20434;-47
2023/05/29 06:36:03;;;;;;;16.20;2.80;;;;;;;18.46;43.20;102721.94;5091658;28;20032;-46
2023/05/29 06:38:28;;;;;;;10.90;2.65;;;;;;;19.18;41.19;102725.25;5092233;28;20032;-50
2023/05/29 06:40:53;;;;;;;12.90;2.63;;;;;;;19.40;41.85;102724.50;5092371;28;20613;-47
2023/05/29 06:43:19;;;;;;;10.25;2.42;;;;;;;20.03;40.40;102718.69;5091119;28;20040;-46
2023/05/29 06:45:44;;;;;;;11.60;2.83;;;;;;;20.53;39.81;102725.94;5092213;28;20109;-45
2023/05/29 06:48:10;;;;;;;12.23;2.78;;;;;;;20.72;39.32;102727.72;5091717;28;20059;-45
2023/05/29 06:50:35;;;;;;;10.00;2.67;;;;;;;21.56;36.93;102725.91;5092068;28;20032;-49
2023/05/29 06:53:00;;;;;;;9.43;2.30;;;;;;;22.05;35.86;102723.97;5091158;28;20040;-49
2023/05/29 06:55:26;;;;;;;12.38;2.40;;;;;;;22.65;34.60;102724.50;5092150;28;20135;-45
2023/05/29 06:57:51;;;;;;;13.45;2.40;;;;;;;23.41;33.38;102730.06;5091845;28;20032;-49
2023/05/29 07:00:17;;;;;;;11.05;2.60;;;;;;;22.59;33.78;102733.41;5091562;28;20476;-48
2023/05/29 07:02:42;;;;;;;9.98;2.30;;;;;;;22.73;33.21;102727.13;5091943;28;20051;-46
2023/05/29 07:05:08;;;;;;;10.65;2.83;;;;;;;22.32;33.10;102725.63;5090993;28;20406;-51
2023/05/29 07:07:33;;;;;;;12.90;2.42;;;;;;;22.83;33.22;102735.03;5091828;28;20115;-44
2023/05/29 07:09:58;;;;;;;10.25;2.10;;;;;;;23.15;33.26;102728.53;5091439;28;20229;-51
2023/05/29 07:12:23;;;;;;;10.73;2.20;;;;;;;23.16;31.82;102735.63;5091337;28;20508;-44
2023/05/29 07:14:49;;;;;;;9.55;2.20;;;;;;;22.77;32.14;102728.88;5091122;28;20358;-49
2023/05/29 07:17:15;;;;;;;9.68;2.13;;;;;;;23.74;31.35;102742.13;5091020;28;20119;-50
2023/05/29 07:19:40;;;;;;;8.95;2.22;;;;;;;23.23;31.12;102732.03;5091687;28;20567;-47
2023/05/29 07:22:06;;;;;;;8.60;2.10;;;;;;;23.33;31.27;102731.03;5090734;28;20055;-44
2023/05/29 07:24:31;;;;;;;7.05;1.98;;;;;;;23.50;31.25;102730.88;5091539;28;20043;-46
2023/05/29 07:26:56;;;;;;;8.80;2.28;;;;;;;23.85;31.48;102731.34;5091625;28;20040;-50
2023/05/29 07:29:23;;;;;;;12.43;2.40;;;;;;;24.23;31.23;102731.75;5073349;28;20032;-45
2023/05/29 07:31:49;;;;;;;7.05;2.10;;;;;;;25.12;29.99;102754.44;5091641;28;20040;-47
2023/05/29 07:34:14;;;;;;;7.43;2.10;;;;;;;;;;5090146;28;20513;-46
2023/05/29 07:37:04;;;;;;;9.60;2.30;;;;;;;23.21;32.85;102758.63;5091321;28;20040;-45
2023/05/29 07:39:31;;;;;;;12.93;2.85;;;;;;;21.77;34.62;102762.97;5091085;28;20366;-50
2023/05/29 07:41:56;;;;;;;10.73;2.40;;;;;;;21.24;35.86;102756.91;5091454;28;20122;-47
2023/05/29 07:44:21;;;;;;;7.78;2.28;;;;;;;21.50;36.05;102752.47;5090456;28;20541;-52
2023/05/29 07:46:47;;;;;;;10.93;2.45;;;;;;;22.08;34.03;102741.69;5091173;28;20035;-46
2023/05/29 07:49:12;;;;;;;9.18;2.25;;;;;;;22.26;34.07;102742.44;5090390;28;20059;-49
2023/05/29 07:51:37;;;;;;;7.35;2.17;;;;;;;22.91;33.52;102749.16;5091061;28;20394;-51
2023/05/29 07:54:03;;;;;;;9.15;2.22;;;;;;;23.01;32.85;102756.16;5089977;28;20150;-47
2023/05/29 07:56:29;;;;;;;7.72;2.33;;;;;;;22.77;33.32;102747.47;5090835;28;20105;-46
2023/05/29 07:58:56;;;;;;;9.98;2.40;;;;;;;23.21;33.07;102755.09;5090825;28;20401;-52
2023/05/29 08:01:21;;;;;;;9.35;2.33;;;;;;;23.65;32.72;102757.34;5090255;28;20514;-47
2023/05/29 08:03:47;;;;;;;10.55;2.58;;;;;;;23.28;31.92;102762.13;5090278;28;20072;-46
2023/05/29 08:06:12;;;;;;;11.25;2.83;;;;;;;22.14;33.65;102762.91;5090200;28;20055;-47
2023/05/29 08:08:38;;;;;;;10.70;2.40;;;;;;;22.18;33.55;102769.97;5090682;28;20189;-46
2023/05/29 08:11:03;;;;;;;12.65;2.78;;;;;;;21.09;35.21;102773.69;5090233;28;20394;-48
2023/05/29 08:13:30;;;;;;;13.13;2.60;;;;;;;21.84;35.12;102774.47;5090176;28;20101;-47
2023/05/29 08:15:55;;;;;;;8.02;2.50;;;;;;;22.69;33.95;102768.75;5090531;28;20119;-48
2023/05/29 08:18:21;;;;;;;7.50;2.63;;;;;;;22.37;34.15;102773.41;5089658;28;20482;-45
2023/05/29 08:20:46;;;;;;;8.70;2.70;;;;;;;21.64;34.63;102774.56;5090665;28;20044;-46
2023/05/29 08:23:11;;;;;;;9.52;2.58;;;;;;;22.91;31.84;102761.56;5089673;28;20032;-47
2023/05/29 08:25:37;;;;;;;8.55;2.47;;;;;;;22.73;32.91;102762.59;5087421;28;20040;-46
2023/05/29 08:28:02;;;;;;;10.32;2.40;;;;;;;22.77;32.31;102779.38;5089762;28;20081;-48
2023/05/29 08:30:27;;;;;;;9.13;2.30;;;;;;;22.51;32.26;102769.75;5090469;28;20024;-47
2023/05/29 08:32:53;;;;;;;7.43;2.17;;;;;;;21.77;33.23;102786.03;5090067;28;20475;-46
2023/05/29 08:35:18;;;;;;;9.27;2.20;;;;;;;20.70;34.42;102771.88;5089795;28;20091;-47
2023/05/29 08:37:43;;;;;;;9.82;2.67;;;;;;;20.21;35.64;102778.78;5090372;28;20070;-45
2023/05/29 08:40:09;;;;;;;10.65;2.30;;;;;;;19.94;36.65;102783.97;5090026;28;20127;-44
2023/05/29 08:42:47;;;;;;;10.95;2.45;;;;;;;20.15;36.05;102778.75;5090046;28;20047;-46
2023/05/29 08:45:14;;;;;;;9.10;2.55;;;;;;;20.47;35.75;102777.16;5089621;28;20143;-48
2023/05/29 08:47:40;;;;;;;10.57;2.40;;;;;;;20.38;35.98;102786.81;5090635;28;20138;-44
2023/05/29 08:50:07;;;;;;;11.00;2.42;;;;;;;20.25;35.62;102769.97;5092565;28;20410;-46
2023/05/29 08:52:37;;;;;;;10.55;2.63;;;;;;;20.23;35.87;102783.22;5090474;28;20539;-49
2023/05/29 08:55:02;;;;;;;9.10;2.35;;;;;;;20.26;36.30;102779.69;5090403;28;20032;-46
2023/05/29 08:57:29;;;;;;;9.93;2.78;;;;;;;19.75;36.59;102785.63;5089895;28;20040;-46
2023/05/29 08:59:55;;;;;;;8.52;2.45;;;;;;;19.79;37.18;102790.94;5089958;28;20040;-45
2023/05/29 09:02:21;;;;;;;12.00;2.55;;;;;;;19.76;37.06;102788.25;5089144;28;20138;-47
2023/05/29 09:04:52;;;;;;;6.20;2.28;;;;;;;19.80;36.77;102794.47;5089952;28;20704;-49
2023/05/29 09:07:19;;;;;;;12.02;2.50;;;;;;;19.65;37.18;102784.66;5089367;28;22323;-50
2023/05/29 09:09:45;;;;;;;13.43;2.47;;;;;;;19.67;37.03;102788.22;5089872;28;20032;-47
2023/05/29 09:12:11;;;;;;;11.15;2.70;;;;;;;19.12;37.44;102786.91;5088871;28;20036;-47
2023/05/29 09:14:37;;;;;;;11.82;2.78;;;;;;;19.34;38.08;102791.47;5089448;28;20028;-46
2023/05/29 09:17:04;;;;;;;10.55;2.35;;;;;;;19.42;38.46;102791.53;5089085;28;20040;-46
2023/05/29 09:19:30;;;;;;;11.93;2.90;;;;;;;19.86;37.45;102791.88;5089629;28;20043;-47
2023/05/29 09:22:05;;;;;;;9.75;2.50;;;;;;;19.83;37.35;102782.13;5089729;28;20028;-46
2023/05/29 09:24:36;;;;;;;11.73;2.60;;;;;;;20.20;37.15;102775.25;5089382;28;20494;-46
2023/05/29 09:27:04;;;;;;;7.82;2.50;;;;;;;20.17;37.53;102784.94;5089003;28;20036;-44
2023/05/29 09:29:32;;;;;;;9.07;2.40;;;;;;;20.15;37.16;102792.00;5089754;28;20406;-44
2023/05/29 09:31:58;;;;;;;13.15;2.60;;;;;;;19.89;36.88;102791.88;5089091;28;20032;-48
2023/05/29 09:34:27;;;;;;;11.63;2.53;;;;;;;19.94;37.37;102782.22;5088917;28;20119;-48
2023/05/29 09:36:53;;;;;;;9.77;2.25;;;;;;;20.01;36.93;102772.50;5088787;28;20042;-46
2023/05/29 09:39:18;;;;;;;8.35;2.15;;;;;;;20.14;36.13;102785.81;5093318;28;20044;-46
2023/05/29 09:41:44;;;;;;;7.15;2.42;;;;;;;20.22;36.60;102778.78;5093877;28;20498;-45
2023/05/29 09:44:16;;;;;;;9.73;2.20;;;;;;;19.92;37.05;102778.66;5092618;28;20490;-51
2023/05/29 09:46:42;;;;;;;8.50;2.40;;;;;;;19.85;36.75;102783.03;5093345;28;20028;-50
2023/05/29 09:49:12;;;;;;;10.48;2.72;;;;;;;20.24;36.90;102784.09;5092978;28;20032;-47
2023/05/29 09:51:38;;;;;;;11.55;2.50;;;;;;;19.44;36.46;102782.75;5093595;28;20063;-50
2023/05/29 09:54:17;;;;;;;11.93;2.53;;;;;;;19.33;36.73;102775.63;5092485;28;20459;-48
2023/05/29 09:56:44;;;;;;;11.00;2.40;;;;;;;19.97;36.49;102776.03;5093632;28;20509;-46
2023/05/29 09:59:11;;;;;;;9.98;2.03;;;;;;;20.29;36.16;102776.16;5092841;28;20379;-45
2023/05/29 10:01:41;;;;;;;9.65;2.55;;;;;;;20.63;35.64;102773.63;5093480;28;20043;-47
2023/05/29 10:04:07;;;;;;;12.43;2.45;;;;;;;19.64;36.65;102772.31;5092358;28;20032;-46
2023/05/29 10:06:35;;;;;;;9.18;2.50;;;;;;;19.98;36.60;102770.75;5092919;28;20529;-53
2023/05/29 10:09:03;;;;;;;7.15;2.10;;;;;;;20.31;35.13;102777.06;5092643;28;20036;-46
2023/05/29 10:11:29;;;;;;;9.32;2.60;;;;;;;19.73;36.24;102767.09;5093426;28;20606;-46
2023/05/29 10:13:57;;;;;;;9.75;2.40;;;;;;;19.96;36.35;102772.50;5092713;28;20036;-49
2023/05/29 10:16:24;;;;;;;10.35;2.38;;;;;;;19.98;35.40;102759.28;5092780;28;20074;-45
2023/05/29 10:18:57;;;;;;;6.55;2.00;;;;;;;20.20;36.25;102756.69;5092963;28;20039;-48
2023/05/29 10:21:27;;;;;;;8.25;2.30;;;;;;;20.20;35.51;102762.00;5092813;28;20481;-49
2023/05/29 10:23:54;;;;;;;9.73;2.60;;;;;;;20.67;34.98;102764.78;5092816;28;20443;-48
2023/05/29 10:26:23;;;;;;;7.30;2.13;;;;;;;20.02;35.96;102774.28;5091989;28;20439;-47
2023/05/29 10:29:05;;;;;;;8.02;2.28;;;;;;;20.40;36.30;102763.88;5092488;28;20214;-49
2023/05/29 10:31:39;;;;;;;11.63;2.38;;;;;;;20.52;35.81;102770.09;5092498;28;20039;-45
2023/05/29 10:34:25;;;;;;;8.38;2.20;;;;;;;20.85;34.82;102771.03;5091519;28;20520;-46
2023/05/29 10:37:02;;;;;;;10.88;2.63;;;;;;;19.99;36.23;102766.34;5092719;28;20517;-47
2023/05/29 10:39:27;;;;;;;9.13;2.20;;;;;;;20.56;35.00;102770.97;5092603;28;20191;-46
2023/05/29 10:41:55;;;;;;;11.38;2.50;;;;;;;20.44;35.42;102763.88;5092709;28;20611;-49
2023/05/29 10:44:33;;;;;;;12.05;2.80;;;;;;;20.69;36.15;102764.81;5091304;28;20040;-50
2023/05/29 10:46:58;;;;;;;12.57;2.63;;;;;;;20.25;35.88;102757.59;5091870;28;20048;-51
2023/05/29 10:49:24;;;;;;;9.77;2.60;;;;;;;20.87;35.69;102762.19;5091598;28;20057;-47
2023/05/29 10:51:51;;;;;;;10.25;2.70;;;;;;;20.91;35.13;102756.00;5092595;28;20092;-47
2023/05/29 10:54:21;;;;;;;11.90;2.70;;;;;;;21.06;34.25;102748.03;5092553;28;20172;-45
2023/05/29 10:57:08;;;;;;;12.70;2.58;;;;;;;21.05;33.91;102753.34;5092456;28;20040;-50
2023/05/29 10:59:37;;;;;;;17.23;2.70;;;;;;;21.18;34.55;102747.19;5091749;28;20093;-48
2023/05/29 11:02:04;;;;;;;8.65;2.53;;;;;;;21.21;33.23;102754.28;5091717;28;20103;-47
2023/05/29 11:04:31;;;;;;;11.02;2.88;;;;;;;20.87;34.72;102751.56;5091864;28;20028;-47
2023/05/29 11:06:57;;;;;;;9.18;2.90;;;;;;;21.25;33.99;102745.41;5092189;28;20083;-45
2023/05/29 11:09:37;;;;;;;11.75;3.13;;;;;;;21.38;34.28;102753.38;5091277;28;20514;-47
2023/05/29 11:12:33;;;;;;;9.63;2.58;;;;;;;20.68;33.17;102760.38;5091778;28;20582;-45
2023/05/29 11:15:10;;;;;;;11.18;3.03;;;;;;;21.04;34.17;102764.84;5091198;28;20038;-46
2023/05/29 11:17:38;;;;;;;13.32;3.42;;;;;;;21.11;34.56;102755.09;5091755;28;20122;-51